sensor_id;sensor_type;location;lat;lon;timestamp;pressure;altitude;pressure_sealevel;temperature;humidity
31717;BME280;18301;51.076;17.046;2023-02-02T00:03:57;99376.13;;;4.30;87.74
31717;BME280;18301;51.076;17.046;2023-02-02T00:09:00;99369.81;;;4.04;88.63
31717;BME280;18301;51.076;17.046;2023-02-02T00:14:02;99382.97;;;3.92;89.89
31717;BME280;18301;51.076;17.046;2023-02-02T00:19:16;99372.66;;;3.86;89.63
31717;BME280;18301;51.076;17.046;2023-02-02T00:24:18;99381.53;;;4.01;90.01
31717;BME280;18301;51.076;17.046;2023-02-02T00:29:22;99387.25;;;3.95;88.64
31717;BME280;18301;51.076;17.046;2023-02-02T00:34:24;99378.34;;;4.09;88.42
31717;BME280;18301;51.076;17.046;2023-02-02T00:39:26;99383.69;;;4.09;88.02
31717;BME280;18301;51.076;17.046;2023-02-02T00:44:27;99401.78;;;4.32;86.42
31717;BME280;18301;51.076;17.046;2023-02-02T00:49:47;99405.44;;;4.03;87.02
31717;BME280;18301;51.076;17.046;2023-02-02T00:54:49;99401.50;;;4.64;85.46
31717;BME280;18301;51.076;17.046;2023-02-02T00:59:50;99410.19;;;4.26;85.24
31717;BME280;18301;51.076;17.046;2023-02-02T01:04:51;99402.19;;;4.26;85.78
31717;BME280;18301;51.076;17.046;2023-02-02T01:09:53;99417.84;;;4.04;86.32
31717;BME280;18301;51.076;17.046;2023-02-02T01:14:54;99413.38;;;4.46;83.93
31717;BME280;18301;51.076;17.046;2023-02-02T01:19:56;99422.44;;;4.57;83.39
31717;BME280;18301;51.076;17.046;2023-02-02T01:24:57;99407.13;;;4.32;84.04
31717;BME280;18301;51.076;17.046;2023-02-02T01:29:59;99410.25;;;4.39;84.16
31717;BME280;18301;51.076;17.046;2023-02-02T01:35:00;99415.28;;;4.58;82.98
31717;BME280;18301;51.076;17.046;2023-02-02T01:40:02;99407.31;;;4.71;81.46
31717;BME280;18301;51.076;17.046;2023-02-02T01:45:25;99396.63;;;4.71;80.88
31717;BME280;18301;51.076;17.046;2023-02-02T01:50:30;99401.69;;;4.75;81.18
31717;BME280;18301;51.076;17.046;2023-02-02T01:55:35;99392.41;;;4.81;80.38
31717;BME280;18301;51.076;17.046;2023-02-02T02:00:38;99392.00;;;4.60;80.82
31717;BME280;18301;51.076;17.046;2023-02-02T02:06:09;99402.97;;;4.82;79.38
31717;BME280;18301;51.076;17.046;2023-02-02T02:11:11;99400.91;;;4.73;79.10
31717;BME280;18301;51.076;17.046;2023-02-02T02:21:47;99404.56;;;4.72;80.81
31717;BME280;18301;51.076;17.046;2023-02-02T02:33:13;99387.13;;;4.52;81.40
31717;BME280;18301;51.076;17.046;2023-02-02T02:38:20;99369.88;;;4.71;80.14
31717;BME280;18301;51.076;17.046;2023-02-02T02:43:29;99384.63;;;4.64;80.07
31717;BME280;18301;51.076;17.046;2023-02-02T02:48:32;99380.28;;;4.75;79.94
31717;BME280;18301;51.076;17.046;2023-02-02T02:53:35;99380.44;;;4.87;79.81
31717;BME280;18301;51.076;17.046;2023-02-02T02:59:03;99375.56;;;5.06;77.56
31717;BME280;18301;51.076;17.046;2023-02-02T03:09:23;99364.41;;;4.32;80.46
31717;BME280;18301;51.076;17.046;2023-02-02T03:14:25;99369.25;;;4.67;79.39
31717;BME280;18301;51.076;17.046;2023-02-02T03:19:27;99365.22;;;4.74;78.75
31717;BME280;18301;51.076;17.046;2023-02-02T03:24:28;99365.44;;;4.71;78.57
31717;BME280;18301;51.076;17.046;2023-02-02T03:29:30;99361.41;;;4.91;77.49
31717;BME280;18301;51.076;17.046;2023-02-02T03:34:32;99325.41;;;4.97;75.36
31717;BME280;18301;51.076;17.046;2023-02-02T03:39:33;99309.63;;;4.79;76.76
31717;BME280;18301;51.076;17.046;2023-02-02T03:44:35;99311.56;;;4.77;76.57
31717;BME280;18301;51.076;17.046;2023-02-02T03:49:36;99310.56;;;4.66;76.43
31717;BME280;18301;51.076;17.046;2023-02-02T03:54:37;99320.34;;;4.92;75.96
31717;BME280;18301;51.076;17.046;2023-02-02T03:59:39;99311.69;;;4.89;75.88
31717;BME280;18301;51.076;17.046;2023-02-02T04:04:40;99302.16;;;4.84;76.46
31717;BME280;18301;51.076;17.046;2023-02-02T04:09:42;99297.69;;;4.85;76.56
31717;BME280;18301;51.076;17.046;2023-02-02T04:14:43;99307.94;;;4.91;76.13
31717;BME280;18301;51.076;17.046;2023-02-02T04:19:45;99310.34;;;5.08;75.71
31717;BME280;18301;51.076;17.046;2023-02-02T04:24:46;99299.44;;;4.99;76.11
31717;BME280;18301;51.076;17.046;2023-02-02T04:29:48;99300.28;;;5.12;75.06
31717;BME280;18301;51.076;17.046;2023-02-02T04:34:49;99303.81;;;5.00;75.78
31717;BME280;18301;51.076;17.046;2023-02-02T04:39:50;99301.22;;;4.98;75.50
31717;BME280;18301;51.076;17.046;2023-02-02T04:44:52;99305.00;;;5.08;75.27
31717;BME280;18301;51.076;17.046;2023-02-02T04:49:54;99308.66;;;5.20;74.20
31717;BME280;18301;51.076;17.046;2023-02-02T04:54:55;99292.25;;;5.12;74.09
31717;BME280;18301;51.076;17.046;2023-02-02T04:59:56;99295.16;;;5.09;74.29
31717;BME280;18301;51.076;17.046;2023-02-02T05:04:58;99297.81;;;5.35;74.35
31717;BME280;18301;51.076;17.046;2023-02-02T05:09:59;99300.50;;;5.09;75.65
31717;BME280;18301;51.076;17.046;2023-02-02T05:15:01;99299.84;;;5.18;74.81
31717;BME280;18301;51.076;17.046;2023-02-02T05:20:04;99308.00;;;5.42;73.68
31717;BME280;18301;51.076;17.046;2023-02-02T05:25:06;99302.63;;;5.29;74.39
31717;BME280;18301;51.076;17.046;2023-02-02T05:30:12;99299.84;;;5.18;75.07
31717;BME280;18301;51.076;17.046;2023-02-02T05:35:14;99308.44;;;5.23;75.02
31717;BME280;18301;51.076;17.046;2023-02-02T05:40:15;99318.88;;;5.26;74.87
31717;BME280;18301;51.076;17.046;2023-02-02T05:45:17;99313.78;;;5.23;75.01
31717;BME280;18301;51.076;17.046;2023-02-02T05:50:18;99297.75;;;5.23;74.67
31717;BME280;18301;51.076;17.046;2023-02-02T05:55:20;99310.78;;;5.15;75.43
31717;BME280;18301;51.076;17.046;2023-02-02T06:00:22;99309.06;;;5.52;73.64
31717;BME280;18301;51.076;17.046;2023-02-02T06:05:23;99339.69;;;5.48;73.88
31717;BME280;18301;51.076;17.046;2023-02-02T06:10:25;99342.84;;;5.66;73.39
31717;BME280;18301;51.076;17.046;2023-02-02T06:15:27;99349.50;;;5.48;74.02
31717;BME280;18301;51.076;17.046;2023-02-02T06:20:29;99341.59;;;5.34;75.19
31717;BME280;18301;51.076;17.046;2023-02-02T06:25:31;99367.28;;;5.23;75.79
31717;BME280;18301;51.076;17.046;2023-02-02T06:30:33;99368.13;;;5.24;76.53
31717;BME280;18301;51.076;17.046;2023-02-02T06:35:35;99370.06;;;5.35;77.04
31717;BME280;18301;51.076;17.046;2023-02-02T06:40:36;99357.84;;;5.18;79.17
31717;BME280;18301;51.076;17.046;2023-02-02T06:45:38;99364.94;;;4.92;80.91
31717;BME280;18301;51.076;17.046;2023-02-02T06:50:40;99373.56;;;4.82;81.58
31717;BME280;18301;51.076;17.046;2023-02-02T06:55:42;99397.38;;;5.00;81.56
31717;BME280;18301;51.076;17.046;2023-02-02T07:00:43;99395.78;;;5.10;80.32
31717;BME280;18301;51.076;17.046;2023-02-02T07:05:44;99399.38;;;5.23;79.96
31717;BME280;18301;51.076;17.046;2023-02-02T07:10:46;99421.31;;;5.01;80.77
31717;BME280;18301;51.076;17.046;2023-02-02T07:16:07;99397.38;;;5.00;81.23
31717;BME280;18301;51.076;17.046;2023-02-02T07:21:18;99441.03;;;5.13;80.90
31717;BME280;18301;51.076;17.046;2023-02-02T07:26:19;99416.09;;;5.00;80.97
31717;BME280;18301;51.076;17.046;2023-02-02T07:31:23;99435.31;;;5.32;80.44
31717;BME280;18301;51.076;17.046;2023-02-02T07:36:26;99444.19;;;4.93;82.42
31717;BME280;18301;51.076;17.046;2023-02-02T07:41:27;99463.53;;;4.69;83.94
31717;BME280;18301;51.076;17.046;2023-02-02T07:46:29;99463.16;;;5.02;82.11
31717;BME280;18301;51.076;17.046;2023-02-02T07:51:31;99437.91;;;5.34;80.25
31717;BME280;18301;51.076;17.046;2023-02-02T07:56:33;99488.84;;;5.05;80.22
31717;BME280;18301;51.076;17.046;2023-02-02T08:01:34;99473.56;;;5.47;79.52
31717;BME280;18301;51.076;17.046;2023-02-02T08:06:38;99485.94;;;5.35;79.29
31717;BME280;18301;51.076;17.046;2023-02-02T08:11:40;99517.50;;;5.30;78.75
31717;BME280;18301;51.076;17.046;2023-02-02T08:16:41;99521.88;;;5.58;79.29
31717;BME280;18301;51.076;17.046;2023-02-02T08:21:43;99528.84;;;5.34;79.29
31717;BME280;18301;51.076;17.046;2023-02-02T08:26:44;99551.06;;;5.21;80.14
31717;BME280;18301;51.076;17.046;2023-02-02T08:31:46;99557.53;;;5.71;78.68
31717;BME280;18301;51.076;17.046;2023-02-02T08:36:47;99567.34;;;5.85;76.66
31717;BME280;18301;51.076;17.046;2023-02-02T08:41:49;99567.84;;;5.50;78.18
31717;BME280;18301;51.076;17.046;2023-02-02T08:46:50;99580.75;;;5.58;77.89
31717;BME280;18301;51.076;17.046;2023-02-02T08:51:52;99568.03;;;6.02;77.01
31717;BME280;18301;51.076;17.046;2023-02-02T08:56:53;99591.31;;;5.87;76.64
31717;BME280;18301;51.076;17.046;2023-02-02T09:01:55;99599.75;;;5.81;77.12
31717;BME280;18301;51.076;17.046;2023-02-02T09:06:56;99608.00;;;5.77;75.69
31717;BME280;18301;51.076;17.046;2023-02-02T09:11:59;99607.41;;;6.39;73.51
31717;BME280;18301;51.076;17.046;2023-02-02T09:17:00;99625.16;;;5.88;74.25
31717;BME280;18301;51.076;17.046;2023-02-02T09:22:02;99670.66;;;6.02;74.11
31717;BME280;18301;51.076;17.046;2023-02-02T09:27:03;99655.00;;;5.96;74.32
31717;BME280;18301;51.076;17.046;2023-02-02T09:32:05;99650.47;;;6.23;73.05
31717;BME280;18301;51.076;17.046;2023-02-02T09:37:06;99674.53;;;5.84;73.90
31717;BME280;18301;51.076;17.046;2023-02-02T09:57:41;99698.63;;;5.84;74.27
31717;BME280;18301;51.076;17.046;2023-02-02T10:02:46;99688.97;;;5.81;76.09
31717;BME280;18301;51.076;17.046;2023-02-02T10:07:54;99696.53;;;5.74;76.24
31717;BME280;18301;51.076;17.046;2023-02-02T10:13:08;99703.19;;;5.82;77.87
31717;BME280;18301;51.076;17.046;2023-02-02T10:18:26;99710.19;;;5.43;80.60
31717;BME280;18301;51.076;17.046;2023-02-02T10:23:32;99719.53;;;5.64;80.42
31717;BME280;18301;51.076;17.046;2023-02-02T10:28:57;99746.66;;;5.01;84.24
31717;BME280;18301;51.076;17.046;2023-02-02T10:34:36;99736.94;;;5.43;82.14
31717;BME280;18301;51.076;17.046;2023-02-02T10:44:58;99751.66;;;5.07;84.09
31717;BME280;18301;51.076;17.046;2023-02-02T11:05:51;99779.34;;;5.77;80.83
31717;BME280;18301;51.076;17.046;2023-02-02T11:11:18;99786.34;;;5.51;82.65
31717;BME280;18301;51.076;17.046;2023-02-02T11:16:24;99784.31;;;5.26;83.16
31717;BME280;18301;51.076;17.046;2023-02-02T11:21:39;99774.56;;;5.54;82.05
31717;BME280;18301;51.076;17.046;2023-02-02T11:26:44;99808.13;;;5.74;80.89
31717;BME280;18301;51.076;17.046;2023-02-02T11:31:47;99818.91;;;5.29;81.61
31717;BME280;18301;51.076;17.046;2023-02-02T11:37:15;99804.22;;;5.37;81.48
31717;BME280;18301;51.076;17.046;2023-02-02T11:42:23;99801.81;;;5.75;79.60
31717;BME280;18301;51.076;17.046;2023-02-02T11:47:27;99814.03;;;6.08;78.70
31717;BME280;18301;51.076;17.046;2023-02-02T11:52:31;99823.81;;;5.94;77.81
31717;BME280;18301;51.076;17.046;2023-02-02T11:57:33;99828.78;;;5.58;78.89
31717;BME280;18301;51.076;17.046;2023-02-02T12:02:34;99824.25;;;5.72;77.91
31717;BME280;18301;51.076;17.046;2023-02-02T12:07:36;99830.00;;;5.66;78.68
31717;BME280;18301;51.076;17.046;2023-02-02T12:17:46;99837.94;;;6.25;78.07
31717;BME280;18301;51.076;17.046;2023-02-02T12:23:07;99846.63;;;6.14;77.24
31717;BME280;18301;51.076;17.046;2023-02-02T12:33:38;99864.91;;;5.65;78.29
31717;BME280;18301;51.076;17.046;2023-02-02T12:39:04;99872.66;;;5.69;78.97
31717;BME280;18301;51.076;17.046;2023-02-02T12:49:32;99903.59;;;5.45;81.79
31717;BME280;18301;51.076;17.046;2023-02-02T13:05:50;99931.84;;;4.74;83.23
31717;BME280;18301;51.076;17.046;2023-02-02T13:11:19;99912.72;;;5.26;81.23
31717;BME280;18301;51.076;17.046;2023-02-02T13:16:34;99918.38;;;5.81;79.54
31717;BME280;18301;51.076;17.046;2023-02-02T13:21:38;99916.19;;;5.28;81.01
31717;BME280;18301;51.076;17.046;2023-02-02T13:26:41;99921.28;;;5.47;81.44
31717;BME280;18301;51.076;17.046;2023-02-02T13:31:58;99934.53;;;5.20;81.68
31717;BME280;18301;51.076;17.046;2023-02-02T13:37:19;99948.34;;;5.43;80.84
31717;BME280;18301;51.076;17.046;2023-02-02T13:47:39;99961.53;;;5.46;78.46
31717;BME280;18301;51.076;17.046;2023-02-02T14:04:15;99991.34;;;5.54;76.59
31717;BME280;18301;51.076;17.046;2023-02-02T14:08:53;100009.75;;;5.30;78.29
31717;BME280;18301;51.076;17.046;2023-02-02T14:13:59;100009.25;;;5.23;78.56
31717;BME280;18301;51.076;17.046;2023-02-02T14:34:48;100048.88;;;5.47;76.39
31717;BME280;18301;51.076;17.046;2023-02-02T14:50:14;100064.38;;;5.10;75.76
31717;BME280;18301;51.076;17.046;2023-02-02T14:55:18;100052.72;;;5.27;75.61
31717;BME280;18301;51.076;17.046;2023-02-02T15:00:25;100089.84;;;5.17;75.88
31717;BME280;18301;51.076;17.046;2023-02-02T15:16:02;100120.19;;;5.32;75.92
31717;BME280;18301;51.076;17.046;2023-02-02T15:21:09;100131.22;;;5.10;75.39
31717;BME280;18301;51.076;17.046;2023-02-02T15:26:19;100153.13;;;5.01;74.55
31717;BME280;18301;51.076;17.046;2023-02-02T15:31:44;100158.25;;;5.21;74.00
31717;BME280;18301;51.076;17.046;2023-02-02T15:36:49;100164.00;;;4.98;74.16
31717;BME280;18301;51.076;17.046;2023-02-02T15:41:53;100176.53;;;5.13;72.95
31717;BME280;18301;51.076;17.046;2023-02-02T15:47:21;100186.53;;;4.76;72.80
31717;BME280;18301;51.076;17.046;2023-02-02T15:52:28;100215.56;;;4.49;73.30
31717;BME280;18301;51.076;17.046;2023-02-02T15:57:34;100232.28;;;4.88;73.32
31717;BME280;18301;51.076;17.046;2023-02-02T16:02:39;100237.22;;;4.62;72.34
31717;BME280;18301;51.076;17.046;2023-02-02T16:07:42;100265.19;;;4.90;70.58
31717;BME280;18301;51.076;17.046;2023-02-02T16:12:50;100254.16;;;4.61;70.15
31717;BME280;18301;51.076;17.046;2023-02-02T16:18:03;100298.19;;;4.54;70.76
31717;BME280;18301;51.076;17.046;2023-02-02T16:23:12;100320.09;;;4.26;69.43
31717;BME280;18301;51.076;17.046;2023-02-02T16:28:20;100336.25;;;4.23;68.49
31717;BME280;18301;51.076;17.046;2023-02-02T16:38:36;100370.25;;;4.00;68.40
31717;BME280;18301;51.076;17.046;2023-02-02T16:43:41;100381.31;;;4.11;68.16
31717;BME280;18301;51.076;17.046;2023-02-02T16:48:54;100400.84;;;4.12;67.58
31717;BME280;18301;51.076;17.046;2023-02-02T16:54:01;100405.66;;;3.66;68.64
31717;BME280;18301;51.076;17.046;2023-02-02T16:59:17;100423.88;;;3.96;68.21
31717;BME280;18301;51.076;17.046;2023-02-02T17:04:24;100421.16;;;4.16;66.82
31717;BME280;18301;51.076;17.046;2023-02-02T17:09:36;100452.94;;;3.83;66.12
31717;BME280;18301;51.076;17.046;2023-02-02T17:14:51;100471.31;;;3.70;65.11
31717;BME280;18301;51.076;17.046;2023-02-02T17:19:53;100494.59;;;3.66;63.38
31717;BME280;18301;51.076;17.046;2023-02-02T17:24:54;100497.81;;;3.93;63.18
31717;BME280;18301;51.076;17.046;2023-02-02T17:29:56;100518.69;;;3.85;61.91
31717;BME280;18301;51.076;17.046;2023-02-02T17:35:00;100517.59;;;3.49;61.74
31717;BME280;18301;51.076;17.046;2023-02-02T17:40:01;100520.81;;;3.77;61.03
31717;BME280;18301;51.076;17.046;2023-02-02T17:45:03;100550.06;;;3.16;58.38
31717;BME280;18301;51.076;17.046;2023-02-02T17:50:05;100537.84;;;3.32;60.72
31717;BME280;18301;51.076;17.046;2023-02-02T17:55:12;100570.97;;;3.49;61.26
31717;BME280;18301;51.076;17.046;2023-02-02T18:00:16;100584.06;;;3.33;61.52
31717;BME280;18301;51.076;17.046;2023-02-02T18:05:18;100574.84;;;3.62;61.37
31717;BME280;18301;51.076;17.046;2023-02-02T18:10:19;100590.28;;;3.33;62.74
31717;BME280;18301;51.076;17.046;2023-02-02T18:15:25;100602.09;;;3.70;61.81
31717;BME280;18301;51.076;17.046;2023-02-02T18:20:27;100603.25;;;3.63;62.30
31717;BME280;18301;51.076;17.046;2023-02-02T18:25:28;100620.63;;;3.73;61.43
31717;BME280;18301;51.076;17.046;2023-02-02T18:30:30;100620.72;;;3.50;63.02
31717;BME280;18301;51.076;17.046;2023-02-02T18:35:32;100622.56;;;3.69;61.80
31717;BME280;18301;51.076;17.046;2023-02-02T18:40:34;100639.72;;;3.84;61.82
31717;BME280;18301;51.076;17.046;2023-02-02T18:45:35;100652.28;;;3.82;61.57
31717;BME280;18301;51.076;17.046;2023-02-02T18:50:37;100669.72;;;3.69;60.95
31717;BME280;18301;51.076;17.046;2023-02-02T18:55:38;100676.59;;;3.97;58.60
31717;BME280;18301;51.076;17.046;2023-02-02T19:00:40;100694.88;;;3.85;57.76
31717;BME280;18301;51.076;17.046;2023-02-02T19:05:42;100701.59;;;3.74;58.91
31717;BME280;18301;51.076;17.046;2023-02-02T19:11:11;100702.16;;;3.82;58.90
31717;BME280;18301;51.076;17.046;2023-02-02T19:16:17;100716.84;;;3.70;59.79
31717;BME280;18301;51.076;17.046;2023-02-02T19:21:20;100715.06;;;3.71;60.07
31717;BME280;18301;51.076;17.046;2023-02-02T19:26:24;100721.81;;;3.57;59.69
31717;BME280;18301;51.076;17.046;2023-02-02T19:31:26;100740.19;;;3.41;59.68
31717;BME280;18301;51.076;17.046;2023-02-02T19:36:28;100735.09;;;3.59;60.07
31717;BME280;18301;51.076;17.046;2023-02-02T19:41:31;100758.13;;;3.38;59.53
31717;BME280;18301;51.076;17.046;2023-02-02T19:46:39;100762.94;;;3.28;60.44
31717;BME280;18301;51.076;17.046;2023-02-02T19:51:44;100762.25;;;3.46;61.26
31717;BME280;18301;51.076;17.046;2023-02-02T19:56:46;100774.59;;;3.26;60.92
31717;BME280;18301;51.076;17.046;2023-02-02T20:01:47;100785.66;;;2.91;62.51
31717;BME280;18301;51.076;17.046;2023-02-02T20:06:51;100783.34;;;3.06;63.15
31717;BME280;18301;51.076;17.046;2023-02-02T20:12:00;100795.09;;;3.00;63.05
31717;BME280;18301;51.076;17.046;2023-02-02T20:17:13;100805.75;;;3.25;63.33
31717;BME280;18301;51.076;17.046;2023-02-02T20:22:23;100820.47;;;3.35;63.82
31717;BME280;18301;51.076;17.046;2023-02-02T20:27:27;100842.00;;;3.31;63.81
31717;BME280;18301;51.076;17.046;2023-02-02T20:32:39;100834.69;;;2.61;67.34
31717;BME280;18301;51.076;17.046;2023-02-02T20:37:41;100846.34;;;2.83;66.91
31717;BME280;18301;51.076;17.046;2023-02-02T20:42:42;100844.69;;;3.06;65.98
31717;BME280;18301;51.076;17.046;2023-02-02T20:47:44;100850.59;;;2.89;66.17
31717;BME280;18301;51.076;17.046;2023-02-02T20:52:46;100862.16;;;3.14;66.26
31717;BME280;18301;51.076;17.046;2023-02-02T20:57:47;100859.75;;;2.82;67.34
31717;BME280;18301;51.076;17.046;2023-02-02T21:02:49;100875.03;;;3.02;67.08
31717;BME280;18301;51.076;17.046;2023-02-02T21:07:52;100878.53;;;2.77;67.53
31717;BME280;18301;51.076;17.046;2023-02-02T21:12:55;100872.50;;;2.72;67.60
31717;BME280;18301;51.076;17.046;2023-02-02T21:17:56;100872.88;;;2.86;67.18
31717;BME280;18301;51.076;17.046;2023-02-02T21:22:58;100872.53;;;2.70;67.47
31717;BME280;18301;51.076;17.046;2023-02-02T21:27:59;100867.06;;;2.48;67.98
31717;BME280;18301;51.076;17.046;2023-02-02T21:33:01;100860.66;;;2.54;68.43
31717;BME280;18301;51.076;17.046;2023-02-02T21:38:09;100853.25;;;2.37;68.85
31717;BME280;18301;51.076;17.046;2023-02-02T21:43:15;100869.13;;;2.12;69.28
31717;BME280;18301;51.076;17.046;2023-02-02T21:48:35;100864.81;;;2.36;68.71
31717;BME280;18301;51.076;17.046;2023-02-02T21:53:36;100870.72;;;2.18;69.23
31717;BME280;18301;51.076;17.046;2023-02-02T21:58:38;100863.69;;;1.87;70.34
31717;BME280;18301;51.076;17.046;2023-02-02T22:03:39;100866.72;;;2.04;70.23
31717;BME280;18301;51.076;17.046;2023-02-02T22:08:47;100866.72;;;2.04;70.32
31717;BME280;18301;51.076;17.046;2023-02-02T22:13:49;100867.53;;;2.06;70.50
31717;BME280;18301;51.076;17.046;2023-02-02T22:18:51;100865.78;;;2.05;70.47
31717;BME280;18301;51.076;17.046;2023-02-02T22:23:52;100869.56;;;1.98;70.65
31717;BME280;18301;51.076;17.046;2023-02-02T22:28:54;100869.75;;;1.92;70.80
31717;BME280;18301;51.076;17.046;2023-02-02T22:33:56;100880.66;;;2.13;70.18
31717;BME280;18301;51.076;17.046;2023-02-02T22:38:57;100877.81;;;1.89;70.84
31717;BME280;18301;51.076;17.046;2023-02-02T22:43:58;100897.47;;;1.85;71.91
31717;BME280;18301;51.076;17.046;2023-02-02T22:49:00;100904.63;;;1.83;71.63
31717;BME280;18301;51.076;17.046;2023-02-02T22:54:01;100910.91;;;1.80;72.10
31717;BME280;18301;51.076;17.046;2023-02-02T22:59:03;100910.13;;;1.77;72.58
31717;BME280;18301;51.076;17.046;2023-02-02T23:04:05;100911.94;;;1.75;72.53
31717;BME280;18301;51.076;17.046;2023-02-02T23:09:06;100912.38;;;1.59;72.67
31717;BME280;18301;51.076;17.046;2023-02-02T23:14:08;100916.06;;;1.55;73.18
31717;BME280;18301;51.076;17.046;2023-02-02T23:19:09;100916.22;;;1.18;73.99
31717;BME280;18301;51.076;17.046;2023-02-02T23:24:11;100923.97;;;1.26;73.88
31717;BME280;18301;51.076;17.046;2023-02-02T23:29:12;100917.50;;;1.36;73.58
31717;BME280;18301;51.076;17.046;2023-02-02T23:34:14;100918.22;;;1.41;73.73
31717;BME280;18301;51.076;17.046;2023-02-02T23:39:15;100925.22;;;1.45;74.14
31717;BME280;18301;51.076;17.046;2023-02-02T23:44:16;100926.97;;;1.46;74.02
31717;BME280;18301;51.076;17.046;2023-02-02T23:49:18;100929.72;;;1.42;74.29
31717;BME280;18301;51.076;17.046;2023-02-02T23:54:20;100926.28;;;1.38;74.16
31717;BME280;18301;51.076;17.046;2023-02-02T23:59:22;100920.34;;;1.30;74.40
